createdAt,value
2019-05-30T00:00:12.532Z,2.02
2019-05-30T00:02:27.488Z,4.17
2019-05-30T00:04:54.318Z,2.62
2019-05-30T00:07:20.983Z,3.00
2019-05-30T00:09:47.797Z,3.00
2019-05-30T00:12:14.608Z,1.70
2019-05-30T00:14:41.314Z,1.98
2019-05-30T00:17:07.917Z,3.15
2019-05-30T00:19:34.702Z,3.15
2019-05-30T00:22:01.585Z,2.20
2019-05-30T00:24:30.081Z,3.30
2019-05-30T00:26:58.413Z,1.50
2019-05-30T00:29:25.371Z,4.15
2019-05-30T00:31:52.016Z,4.05
2019-05-30T00:34:19.489Z,4.55
2019-05-30T00:36:46.230Z,4.08
2019-05-30T00:39:12.996Z,3.00
2019-05-30T00:41:39.578Z,3.50
2019-05-30T00:44:06.405Z,1.85
2019-05-30T00:46:33.248Z,5.10
2019-05-30T09:17:39.319Z,3.20
2019-05-30T09:20:07.789Z,5.30
2019-05-30T09:22:35.016Z,4.25
2019-05-30T09:25:01.806Z,3.12
2019-05-30T09:27:28.920Z,3.42
2019-05-30T09:29:56.207Z,3.62
2019-05-30T09:32:23.055Z,4.25
2019-05-30T09:34:51.914Z,5.30
2019-05-30T09:37:18.615Z,3.25
2019-05-30T09:39:45.830Z,3.10
2019-05-30T09:42:12.620Z,3.52
2019-05-30T09:44:40.464Z,4.03
2019-05-30T09:47:07.749Z,3.42
2019-05-30T09:49:34.927Z,3.58
2019-05-30T09:52:01.712Z,4.22
2019-05-30T09:54:28.433Z,4.30
2019-05-30T09:56:57.363Z,3.58
2019-05-30T09:59:23.852Z,4.25
2019-05-30T10:01:50.623Z,5.45
2019-05-30T10:04:17.412Z,4.42
2019-05-30T10:06:44.670Z,3.52
2019-05-30T10:09:11.567Z,5.85
2019-05-30T10:11:38.372Z,3.42
2019-05-30T10:14:05.266Z,3.65
2019-05-30T10:16:32.090Z,3.45
2019-05-30T10:18:58.930Z,3.55
2019-05-30T10:21:25.599Z,3.20
2019-05-30T10:23:53.692Z,4.40
2019-05-30T10:26:20.508Z,3.77
2019-05-30T10:28:49.137Z,4.30
2019-05-30T10:31:16.414Z,3.35
2019-05-30T10:33:44.293Z,4.70
2019-05-30T10:36:14.712Z,3.95
2019-05-30T10:38:40.966Z,4.97
2019-05-30T10:41:07.942Z,3.55
2019-05-30T10:43:34.530Z,5.65
2019-05-30T10:46:04.142Z,3.10
2019-05-30T10:48:30.967Z,1.92
2019-05-30T10:51:01.153Z,4.62
2019-05-30T10:53:27.855Z,3.62
2019-05-30T10:55:54.953Z,3.25
2019-05-30T10:58:22.389Z,5.17
2019-05-30T11:00:55.563Z,1.50
2019-05-30T11:03:23.878Z,1.80
2019-05-30T11:06:01.762Z,2.30
2019-05-30T11:08:30.836Z,2.22
2019-05-30T11:10:57.501Z,3.12
2019-05-30T11:13:24.311Z,5.55
2019-05-30T11:15:53.424Z,2.10
2019-05-30T11:18:20.863Z,3.98
2019-05-30T11:21:07.194Z,2.47
2019-05-30T11:23:33.869Z,5.35
2019-05-30T11:26:00.674Z,4.00
2019-05-30T11:28:27.465Z,4.53
2019-05-30T11:30:54.813Z,4.28
2019-05-30T11:33:22.820Z,3.58
2019-05-30T11:35:49.490Z,1.75
2019-05-30T11:38:16.202Z,4.78
2019-05-30T11:40:42.896Z,1.80
2019-05-30T11:43:09.740Z,1.72
2019-05-30T11:45:36.555Z,3.25
2019-05-30T11:48:03.379Z,1.30
2019-05-30T11:50:30.414Z,4.33
2019-05-30T11:52:57.959Z,1.35
2019-05-30T11:55:24.889Z,2.45
2019-05-30T11:57:52.060Z,3.17
2019-05-30T12:00:19.334Z,2.60
2019-05-30T12:02:46.153Z,3.67
2019-05-30T12:05:13.486Z,1.60
2019-05-30T12:07:40.177Z,3.10
2019-05-30T12:10:07.050Z,1.82
2019-05-30T12:12:33.898Z,1.20
2019-05-30T12:15:01.662Z,3.50
2019-05-30T12:17:28.682Z,3.35
2019-05-30T12:19:56.029Z,3.33
2019-05-30T12:22:22.935Z,2.58
2019-05-30T12:24:49.655Z,3.37
2019-05-30T12:27:16.444Z,2.50
2019-05-30T12:29:43.127Z,4.80
2019-05-30T12:32:09.811Z,5.05
2019-05-30T12:34:38.737Z,4.28
2019-05-30T12:37:05.507Z,4.80
2019-05-30T12:39:32.205Z,2.65
2019-05-30T12:41:59.091Z,1.27
2019-05-30T12:44:25.946Z,1.62
2019-05-30T12:46:53.372Z,2.22
2019-05-30T12:49:20.366Z,3.30
2019-05-30T12:51:47.144Z,2.35
2019-05-30T12:54:13.823Z,1.82
2019-05-30T12:56:40.487Z,2.60
2019-05-30T12:59:07.286Z,2.10
2019-05-30T13:01:33.967Z,1.98
2019-05-30T13:04:01.118Z,2.92
2019-05-30T13:06:27.844Z,2.75
2019-05-30T13:08:55.042Z,1.67
2019-05-30T13:11:23.326Z,1.60
2019-05-30T13:13:50.133Z,3.27
2019-05-30T13:16:16.957Z,3.45
2019-05-30T13:18:43.957Z,2.87
2019-05-30T13:21:11.106Z,2.87
2019-05-30T13:23:37.892Z,3.65
2019-05-30T13:26:05.896Z,2.40
2019-05-30T13:28:32.799Z,1.50
2019-05-30T13:31:00.292Z,3.33
2019-05-30T13:33:27.013Z,2.45
2019-05-30T13:35:54.147Z,2.92
2019-05-30T13:38:26.334Z,2.05
2019-05-30T13:40:51.953Z,2.87
2019-05-30T13:43:18.624Z,2.08
2019-05-30T13:45:45.478Z,1.75
2019-05-30T13:48:12.238Z,3.98
2019-05-30T13:50:39.063Z,5.40
2019-05-30T13:53:07.329Z,2.15
2019-05-30T13:55:35.007Z,2.10
2019-05-30T13:58:02.087Z,3.00
2019-05-30T14:00:31.663Z,1.95
2019-05-30T14:02:58.424Z,1.77
2019-05-30T14:05:25.564Z,1.92
2019-05-30T14:07:52.323Z,4.28
2019-05-30T14:10:19.512Z,2.50
2019-05-30T14:12:46.287Z,2.25
2019-05-30T14:15:14.574Z,1.87
2019-05-30T14:17:41.482Z,2.95
2019-05-30T14:20:11.221Z,2.33
2019-05-30T14:22:38.432Z,4.37
2019-05-30T14:25:08.043Z,1.92
2019-05-30T14:27:34.811Z,2.97
2019-05-30T14:30:03.090Z,4.50
2019-05-30T14:32:29.916Z,3.22
2019-05-30T14:34:56.720Z,2.25
2019-05-30T14:37:26.513Z,3.45
2019-05-30T14:39:53.314Z,2.98
2019-05-30T14:42:20.196Z,3.72
2019-05-30T14:44:46.856Z,3.95
2019-05-30T14:47:13.559Z,5.22
2019-05-30T14:49:40.393Z,2.70
2019-05-30T14:52:08.847Z,3.52
2019-05-30T14:54:35.533Z,2.60
2019-05-30T14:59:42.934Z,3.85
2019-05-30T15:02:11.210Z,3.08
2019-05-30T15:04:38.200Z,2.65
2019-05-30T15:07:05.352Z,3.55
2019-05-30T15:09:32.857Z,7.62
2019-05-30T15:11:59.955Z,6.10
2019-05-30T15:14:26.633Z,3.60
2019-05-30T15:16:53.431Z,3.33
2019-05-30T15:19:20.223Z,3.95
2019-05-30T15:21:47.215Z,4.35
2019-05-30T15:24:14.355Z,3.58
2019-05-30T15:26:41.201Z,5.65
2019-05-30T15:29:08.168Z,3.58
2019-05-30T15:31:34.994Z,2.50
2019-05-30T15:34:01.673Z,4.28
2019-05-30T15:36:28.724Z,4.80
2019-05-30T15:38:55.291Z,3.40
2019-05-30T15:41:22.080Z,3.00
2019-05-30T15:43:48.872Z,3.67
2019-05-30T15:46:15.917Z,5.60
2019-05-30T15:48:42.822Z,4.70
2019-05-30T15:51:10.429Z,5.62
2019-05-30T15:53:38.239Z,8.08
2019-05-30T15:56:05.023Z,3.50
2019-05-30T15:58:31.733Z,6.08
2019-05-30T16:00:58.503Z,4.22
2019-05-30T16:03:25.101Z,4.75
2019-05-30T16:05:53.076Z,5.70
2019-05-30T16:08:20.960Z,4.95
2019-05-30T16:10:48.114Z,9.30
2019-05-30T16:13:15.318Z,6.22
2019-05-30T16:15:44.503Z,5.10
2019-05-30T16:18:11.604Z,8.20
2019-05-30T16:20:38.488Z,6.60
2019-05-30T16:23:05.353Z,5.55
2019-05-30T16:25:32.125Z,5.67
2019-05-30T16:27:58.921Z,7.75
2019-05-30T16:30:27.153Z,5.08
2019-05-30T16:32:54.101Z,7.90
2019-05-30T16:35:22.158Z,5.30
2019-05-30T16:37:48.908Z,8.23
2019-05-30T16:40:16.429Z,7.35
2019-05-30T16:42:43.752Z,7.60
2019-05-30T16:45:18.710Z,8.23
2019-05-30T16:47:42.812Z,7.28
2019-05-30T16:50:10.526Z,9.40
2019-05-30T16:52:37.354Z,9.35
2019-05-30T16:55:05.477Z,9.18
2019-05-30T16:57:32.268Z,9.03
2019-05-30T16:59:59.091Z,8.83
2019-05-30T17:02:26.953Z,7.87
2019-05-30T17:04:53.883Z,6.80
2019-05-30T17:07:21.527Z,7.55
2019-05-30T17:09:50.616Z,6.92
2019-05-30T17:12:17.524Z,7.12
2019-05-30T17:14:44.183Z,6.80
2019-05-30T17:17:11.277Z,10.38
2019-05-30T17:19:39.440Z,10.70
2019-05-30T17:22:06.513Z,8.35
2019-05-30T17:24:33.510Z,9.28
2019-05-30T17:27:00.230Z,9.40
2019-05-30T17:29:27.719Z,8.10
2019-05-30T17:31:54.607Z,11.22
2019-05-30T17:34:21.841Z,8.45
2019-05-30T17:36:49.224Z,7.25
2019-05-30T17:39:18.812Z,9.55
2019-05-30T17:41:46.705Z,7.60
2019-05-30T17:44:13.496Z,8.13
2019-05-30T17:46:40.298Z,8.60
2019-05-30T17:49:07.306Z,11.38
2019-05-30T17:51:34.437Z,7.42
2019-05-30T17:54:01.324Z,7.03
2019-05-30T17:56:28.277Z,7.95
2019-05-30T17:58:55.117Z,6.72
2019-05-30T18:01:22.240Z,5.65
2019-05-30T18:03:49.871Z,9.80
2019-05-30T18:06:16.677Z,6.40
2019-05-30T18:08:43.369Z,6.87
2019-05-30T18:11:10.195Z,6.90
2019-05-30T18:13:36.988Z,6.53
2019-05-30T18:16:03.800Z,6.53
2019-05-30T18:18:31.385Z,6.53
2019-05-30T18:20:58.689Z,7.15
2019-05-30T18:23:26.050Z,8.68
2019-05-30T18:25:54.583Z,8.05
2019-05-30T18:28:23.622Z,6.40
2019-05-30T18:30:50.560Z,7.03
2019-05-30T18:33:17.269Z,7.58
2019-05-30T18:35:44.431Z,7.58
2019-05-30T18:38:11.229Z,8.30
2019-05-30T18:40:38.000Z,10.10
2019-05-30T18:43:04.801Z,7.53
2019-05-30T18:45:36.790Z,9.35
2019-05-30T18:48:03.594Z,6.42
2019-05-30T18:50:31.624Z,7.65
2019-05-30T18:52:58.505Z,11.73
2019-05-30T18:55:28.554Z,8.93
2019-05-30T18:57:55.357Z,8.40
2019-05-30T19:00:22.141Z,9.48
2019-05-30T19:02:48.810Z,8.85
2019-05-30T19:05:16.510Z,8.18
2019-05-30T19:07:43.210Z,8.83
2019-05-30T19:10:10.005Z,8.50
2019-05-30T19:12:36.783Z,9.85
2019-05-30T19:15:27.184Z,8.45
2019-05-30T19:17:53.579Z,10.05
2019-05-30T19:20:22.745Z,10.05
2019-05-30T19:22:49.515Z,9.83
2019-05-30T19:25:16.333Z,10.72
2019-05-30T19:27:43.148Z,10.45
2019-05-30T19:30:11.409Z,11.70
2019-05-30T19:32:38.495Z,10.43
2019-05-30T19:35:07.483Z,9.55
2019-05-30T19:37:35.428Z,11.57
2019-05-30T19:40:02.351Z,11.83
2019-05-30T19:42:29.333Z,13.70
2019-05-30T19:45:00.405Z,10.72
2019-05-30T19:47:28.560Z,12.43
2019-05-30T19:49:55.911Z,11.70
2019-05-30T19:52:22.699Z,11.35
2019-05-30T19:54:49.487Z,13.30
2019-05-30T19:57:16.194Z,13.60
2019-05-30T19:59:43.035Z,10.32
2019-05-30T20:02:09.811Z,13.28
2019-05-30T20:04:36.682Z,13.20
2019-05-30T20:07:03.457Z,13.65
2019-05-30T20:09:30.488Z,12.95
2019-05-30T20:12:03.849Z,15.15
2019-05-30T20:14:26.042Z,12.90
2019-05-30T20:16:52.818Z,13.35
2019-05-30T20:19:19.619Z,15.13
2019-05-30T20:21:46.397Z,15.32
2019-05-30T20:24:13.191Z,14.40
2019-05-30T20:26:40.668Z,13.58
2019-05-30T20:29:07.519Z,14.93
2019-05-30T20:31:35.583Z,14.93
2019-05-30T20:34:02.433Z,16.15
2019-05-30T20:36:30.406Z,16.52
2019-05-30T20:38:57.204Z,18.62
2019-05-30T20:41:23.873Z,14.98
2019-05-30T20:43:50.659Z,16.75
2019-05-30T20:46:23.127Z,15.23
2019-05-30T20:48:46.015Z,17.12
2019-05-30T20:51:21.108Z,16.05
2019-05-30T20:53:41.654Z,17.67
2019-05-30T20:56:08.432Z,17.25
2019-05-30T20:58:35.533Z,13.22
2019-05-30T21:01:02.642Z,14.68
2019-05-30T21:03:29.438Z,17.25
2019-05-30T21:05:56.891Z,18.65
2019-05-30T21:08:23.661Z,16.85
2019-05-30T21:11:12.269Z,14.73
2019-05-30T21:13:44.288Z,13.53
2019-05-30T21:16:15.971Z,13.48
2019-05-30T21:18:44.389Z,13.00
2019-05-30T21:21:11.337Z,13.98
2019-05-30T21:23:38.309Z,17.25
2019-05-30T21:26:05.180Z,13.58
2019-05-30T21:28:31.954Z,16.12
2019-05-30T21:30:58.543Z,15.95
2019-05-30T21:33:25.334Z,15.35
2019-05-30T21:35:52.021Z,14.30
2019-05-30T21:38:18.841Z,14.13
2019-05-30T21:40:46.577Z,16.37
2019-05-30T21:43:13.299Z,14.23
2019-05-30T21:45:40.437Z,13.00
2019-05-30T21:48:07.170Z,14.23
2019-05-30T21:50:34.240Z,13.08
2019-05-30T21:53:01.338Z,12.88
2019-05-30T21:55:30.264Z,13.28
2019-05-30T21:57:57.058Z,12.65
2019-05-30T22:00:51.056Z,15.25
2019-05-30T22:03:17.906Z,13.13
2019-05-30T22:05:45.857Z,14.87
2019-05-30T22:08:13.562Z,14.50
2019-05-30T22:10:41.272Z,13.80
2019-05-30T22:13:09.755Z,13.28
2019-05-30T22:15:36.686Z,14.55
2019-05-30T22:21:46.016Z,13.72
2019-05-30T22:24:12.982Z,12.85
2019-05-30T22:26:39.787Z,13.18
2019-05-30T22:29:06.592Z,11.97
2019-05-30T22:31:33.395Z,13.28
2019-05-30T22:34:00.164Z,12.93
2019-05-30T22:36:26.957Z,12.35
2019-05-30T22:38:53.719Z,11.57
2019-05-30T22:41:20.507Z,11.43
2019-05-30T22:43:48.244Z,11.18
2019-05-30T22:46:15.074Z,11.93
2019-05-30T22:48:41.967Z,11.38
2019-05-30T22:51:08.748Z,11.33
2019-05-30T22:53:35.439Z,12.37
2019-05-30T22:56:02.109Z,12.05
2019-05-30T22:58:29.077Z,12.30
2019-05-30T23:00:56.200Z,12.50
2019-05-30T23:03:23.084Z,10.98
2019-05-30T23:05:51.118Z,11.15
2019-05-30T23:08:18.588Z,11.30
2019-05-30T23:10:45.623Z,12.88
2019-05-30T23:13:13.763Z,13.45
2019-05-30T23:15:40.635Z,11.75
2019-05-30T23:18:07.426Z,11.68
2019-05-30T23:20:34.203Z,10.50
2019-05-30T23:23:00.809Z,11.55
2019-05-30T23:25:27.606Z,10.68
2019-05-30T23:27:54.325Z,12.07
2019-05-30T23:30:21.802Z,10.85
2019-05-30T23:32:48.498Z,10.78
2019-05-30T23:35:15.371Z,10.68
2019-05-30T23:37:42.152Z,10.53
2019-05-30T23:40:09.323Z,11.63
2019-05-30T23:42:36.052Z,10.23
2019-05-30T23:45:02.950Z,11.00
2019-05-30T23:47:29.736Z,11.50
2019-05-30T23:49:56.515Z,9.88
2019-05-30T23:52:23.210Z,10.78
2019-05-30T23:54:50.073Z,10.25
2019-05-30T23:57:16.872Z,11.30
2019-05-30T23:59:43.645Z,10.80
